createdAt,value
2022-11-13T00:01:09.161Z,18.93
2022-11-13T00:03:36.889Z,19.57
2022-11-13T00:06:05.412Z,18.10
2022-11-13T00:08:34.601Z,18.67
2022-11-13T00:11:03.999Z,17.87
2022-11-13T00:13:31.800Z,20.63
2022-11-13T00:16:01.099Z,18.33
2022-11-13T00:18:30.069Z,17.33
2022-11-13T00:20:58.567Z,18.80
2022-11-13T00:23:26.289Z,17.83
2022-11-13T00:25:55.405Z,18.30
2022-11-13T00:28:23.168Z,16.70
2022-11-13T00:30:50.933Z,16.10
2022-11-13T00:33:38.294Z,15.83
2022-11-13T00:36:08.295Z,15.83
2022-11-13T00:38:36.621Z,15.90
2022-11-13T00:41:05.784Z,17.53
2022-11-13T00:43:33.493Z,17.50
2022-11-13T00:46:01.123Z,16.80
2022-11-13T00:48:29.188Z,16.53
2022-11-13T00:50:57.700Z,15.70
2022-11-13T00:53:25.532Z,15.50
2022-11-13T00:55:53.450Z,16.83
2022-11-13T00:58:22.583Z,15.50
2022-11-13T01:00:50.279Z,15.63
2022-11-13T01:03:20.784Z,14.50
2022-11-13T01:05:49.126Z,14.20
2022-11-13T01:08:17.418Z,13.63
2022-11-13T01:10:53.041Z,13.93
2022-11-13T01:13:22.312Z,13.73
2022-11-13T01:15:49.912Z,12.97
2022-11-13T01:18:17.706Z,14.00
2022-11-13T01:20:46.202Z,13.63
2022-11-13T01:23:13.898Z,13.40
2022-11-13T01:25:41.562Z,13.03
2022-11-13T01:28:09.191Z,13.83
2022-11-13T01:30:39.742Z,14.10
2022-11-13T01:33:07.402Z,12.17
2022-11-13T01:35:35.022Z,14.53
2022-11-13T01:38:02.648Z,14.63
2022-11-13T01:40:30.336Z,17.23
2022-11-13T01:42:57.935Z,18.10
2022-11-13T01:46:03.952Z,16.50
2022-11-13T01:48:37.481Z,16.43
2022-11-13T01:51:11.509Z,15.17
2022-11-13T01:53:42.147Z,14.80
2022-11-13T01:56:10.167Z,13.97
2022-11-13T01:58:38.781Z,13.53
2022-11-13T02:01:07.875Z,13.33
2022-11-13T02:03:35.818Z,14.53
2022-11-13T02:06:03.796Z,12.30
2022-11-13T02:08:31.731Z,14.73
2022-11-13T02:10:59.740Z,14.17
2022-11-13T02:13:27.548Z,11.70
2022-11-13T02:15:56.619Z,12.60
2022-11-13T02:18:28.619Z,13.27
2022-11-13T02:21:05.858Z,11.23
2022-11-13T02:23:44.290Z,8.60
2022-11-13T02:26:14.231Z,9.27
2022-11-13T02:28:41.854Z,9.13
2022-11-13T02:31:10.522Z,8.63
2022-11-13T02:33:38.421Z,8.43
2022-11-13T02:36:08.011Z,8.83
2022-11-13T02:38:37.082Z,8.50
2022-11-13T02:41:04.793Z,8.30
2022-11-13T02:43:33.831Z,7.90
2022-11-13T02:46:01.425Z,8.10
2022-11-13T02:48:29.719Z,8.40
2022-11-13T02:50:57.546Z,8.57
2022-11-13T02:53:25.198Z,6.70
2022-11-13T02:55:52.832Z,6.80
2022-11-13T02:58:20.556Z,5.97
2022-11-13T03:00:49.570Z,7.07
2022-11-13T03:03:34.228Z,6.97
2022-11-13T03:06:04.812Z,6.60
2022-11-13T03:08:33.470Z,6.93
2022-11-13T03:11:07.304Z,6.57
2022-11-13T03:13:34.934Z,6.37
2022-11-13T03:16:11.664Z,6.37
2022-11-13T03:18:39.560Z,6.53
2022-11-13T03:21:09.341Z,6.17
2022-11-13T03:23:37.356Z,6.83
2022-11-13T03:26:07.343Z,6.10
2022-11-13T03:28:35.060Z,6.07
2022-11-13T03:31:02.948Z,6.70
2022-11-13T03:33:32.498Z,5.43
2022-11-13T03:36:00.601Z,6.23
2022-11-13T03:38:28.627Z,5.83
2022-11-13T03:40:56.441Z,6.60
2022-11-13T03:43:24.327Z,6.60
2022-11-13T03:45:52.375Z,6.00
2022-11-13T03:48:20.116Z,6.53
2022-11-13T03:50:52.877Z,7.43
2022-11-13T03:53:20.785Z,9.70
2022-11-13T03:55:48.434Z,10.37
2022-11-13T03:58:16.067Z,10.37
2022-11-13T04:00:44.858Z,11.13
2022-11-13T04:03:12.641Z,10.73
2022-11-13T04:05:40.692Z,11.03
2022-11-13T04:08:09.998Z,11.03
2022-11-13T04:10:37.632Z,11.17
2022-11-13T04:13:05.290Z,11.63
2022-11-13T04:15:32.967Z,11.23
2022-11-13T04:18:00.623Z,12.07
2022-11-13T04:20:28.791Z,11.63
2022-11-13T04:22:57.566Z,12.03
2022-11-13T04:25:27.474Z,11.47
2022-11-13T04:27:55.847Z,11.00
2022-11-13T04:30:23.473Z,10.93
2022-11-13T04:32:51.318Z,12.47
2022-11-13T04:35:19.011Z,12.43
2022-11-13T04:37:46.688Z,11.27
2022-11-13T04:40:14.389Z,12.37
2022-11-13T04:42:51.502Z,12.83
2022-11-13T04:45:21.351Z,12.63
2022-11-13T04:47:49.763Z,13.40
2022-11-13T04:50:17.825Z,12.33
2022-11-13T04:52:45.800Z,12.13
2022-11-13T04:55:13.939Z,12.00
2022-11-13T04:57:43.172Z,12.10
2022-11-13T05:00:12.029Z,11.43
2022-11-13T05:02:39.626Z,11.97
2022-11-13T05:05:07.862Z,11.53
2022-11-13T05:07:35.545Z,12.03
2022-11-13T05:10:03.222Z,11.40
2022-11-13T05:12:30.860Z,11.77
2022-11-13T05:14:59.814Z,11.50
2022-11-13T05:17:27.444Z,12.47
2022-11-13T05:19:55.060Z,11.80
2022-11-13T05:22:22.685Z,12.67
2022-11-13T05:24:50.278Z,11.40
2022-11-13T05:27:18.074Z,12.00
2022-11-13T05:29:45.816Z,11.33
2022-11-13T05:32:14.866Z,10.77
2022-11-13T05:34:42.640Z,9.60
2022-11-13T05:37:10.206Z,10.37
2022-11-13T05:39:37.849Z,9.57
2022-11-13T05:42:05.835Z,10.87
2022-11-13T05:44:33.481Z,10.40
2022-11-13T05:47:01.080Z,10.67
2022-11-13T05:49:30.088Z,10.00
2022-11-13T05:51:57.738Z,10.80
2022-11-13T05:54:25.321Z,10.67
2022-11-13T05:56:52.970Z,9.40
2022-11-13T05:59:20.602Z,9.63
2022-11-13T06:01:48.298Z,10.17
2022-11-13T06:04:15.963Z,9.90
2022-11-13T06:06:44.971Z,10.67
2022-11-13T06:09:16.268Z,10.10
2022-11-13T06:11:44.195Z,9.63
2022-11-13T06:14:11.831Z,10.17
2022-11-13T06:16:40.204Z,10.43
2022-11-13T06:19:10.138Z,9.43
2022-11-13T06:21:39.585Z,9.97
2022-11-13T06:24:11.967Z,10.00
2022-11-13T06:26:39.947Z,10.80
2022-11-13T06:29:08.999Z,10.20
2022-11-13T06:31:37.984Z,10.43
2022-11-13T06:34:06.511Z,10.17
2022-11-13T06:36:36.527Z,10.17
2022-11-13T06:39:09.185Z,10.17
2022-11-13T06:41:39.000Z,10.10
2022-11-13T06:44:06.767Z,9.83
2022-11-13T06:46:34.429Z,10.37
2022-11-13T06:49:02.017Z,9.83
2022-11-13T06:51:31.654Z,9.30
2022-11-13T06:53:59.561Z,10.40
2022-11-13T06:56:28.586Z,10.63
2022-11-13T06:58:56.770Z,11.40
2022-11-13T07:01:26.718Z,11.53
2022-11-13T07:03:54.712Z,11.63
2022-11-13T07:06:23.830Z,10.87
2022-11-13T07:08:51.727Z,10.73
2022-11-13T07:11:21.906Z,10.80
2022-11-13T07:13:51.430Z,11.23
2022-11-13T07:16:19.612Z,11.30
2022-11-13T07:18:51.109Z,10.97
2022-11-13T07:21:19.018Z,10.87
2022-11-13T07:23:48.768Z,10.97
2022-11-13T07:26:16.630Z,11.60
2022-11-13T07:28:44.315Z,9.97
2022-11-13T07:31:14.962Z,10.60
2022-11-13T07:33:42.757Z,10.23
2022-11-13T07:36:11.283Z,9.63
2022-11-13T07:38:38.945Z,10.60
2022-11-13T07:41:06.999Z,9.97
2022-11-13T07:43:35.124Z,9.37
2022-11-13T07:46:03.177Z,8.97
2022-11-13T07:48:32.443Z,9.80
2022-11-13T07:51:01.288Z,9.47
2022-11-13T07:53:28.919Z,9.47
2022-11-13T07:55:56.507Z,8.87
2022-11-13T07:58:24.085Z,9.13
2022-11-13T08:00:51.853Z,8.10
2022-11-13T08:03:19.570Z,8.33
2022-11-13T08:05:48.515Z,7.30
2022-11-13T08:08:16.278Z,7.00
2022-11-13T08:10:43.981Z,6.40
2022-11-13T08:13:12.228Z,6.00
2022-11-13T08:15:40.006Z,7.23
2022-11-13T08:18:07.847Z,6.50
2022-11-13T08:20:35.626Z,7.30
2022-11-13T08:23:06.111Z,7.23
2022-11-13T08:25:34.935Z,8.10
2022-11-13T08:28:02.575Z,8.57
2022-11-13T08:30:31.316Z,8.30
2022-11-13T08:32:58.993Z,9.07
2022-11-13T08:35:29.454Z,8.77
2022-11-13T08:38:04.356Z,9.13
2022-11-13T08:40:32.330Z,9.07
2022-11-13T08:43:00.933Z,9.17
2022-11-13T08:45:28.768Z,9.23
2022-11-13T08:48:00.639Z,9.07
2022-11-13T08:50:29.008Z,8.87
2022-11-13T08:52:56.971Z,8.83
2022-11-13T08:55:26.567Z,8.80
2022-11-13T08:57:54.616Z,7.97
2022-11-13T09:00:22.781Z,8.50
2022-11-13T09:02:55.551Z,8.27
2022-11-13T09:05:23.368Z,7.97
2022-11-13T09:07:51.646Z,6.67
2022-11-13T09:10:19.908Z,7.70
2022-11-13T09:12:49.458Z,7.73
2022-11-13T09:15:21.755Z,8.00
2022-11-13T09:17:52.177Z,7.77
2022-11-13T09:20:25.715Z,8.00
2022-11-13T09:22:58.639Z,8.17
2022-11-13T09:25:26.495Z,7.73
2022-11-13T09:27:56.948Z,7.50
2022-11-13T09:30:25.086Z,6.63
2022-11-13T09:32:55.105Z,7.20
2022-11-13T09:35:34.019Z,6.63
2022-11-13T09:38:07.861Z,6.40
2022-11-13T09:40:43.308Z,6.73
2022-11-13T09:43:23.993Z,6.17
2022-11-13T09:45:55.306Z,6.07
2022-11-13T09:48:32.160Z,6.80
2022-11-13T09:51:05.106Z,6.43
2022-11-13T09:53:40.473Z,7.23
2022-11-13T09:56:20.971Z,6.80
2022-11-13T09:59:02.501Z,7.03
2022-11-13T10:01:44.997Z,7.70
2022-11-13T10:04:17.070Z,7.43
2022-11-13T10:07:06.868Z,7.57
2022-11-13T10:09:44.220Z,7.67
2022-11-13T10:12:14.998Z,7.17
2022-11-13T10:14:47.668Z,6.83
2022-11-13T10:17:22.747Z,7.13
2022-11-13T10:19:57.791Z,7.43
2022-11-13T10:22:34.623Z,8.60
2022-11-13T10:25:16.870Z,8.87
2022-11-13T10:27:46.794Z,9.80
2022-11-13T10:30:21.643Z,10.17
2022-11-13T10:32:50.019Z,9.97
2022-11-13T10:35:42.036Z,10.37
2022-11-13T10:38:17.067Z,10.23
2022-11-13T10:40:45.741Z,11.10
2022-11-13T10:43:17.108Z,10.47
2022-11-13T10:45:58.131Z,10.40
2022-11-13T10:48:30.244Z,10.30
2022-11-13T10:50:59.839Z,10.37
2022-11-13T10:53:39.784Z,10.13
2022-11-13T10:56:22.658Z,10.43
2022-11-13T10:59:04.980Z,11.33
2022-11-13T11:01:34.306Z,11.43
2022-11-13T11:04:06.510Z,10.33
2022-11-13T11:07:12.588Z,10.67
2022-11-13T11:09:27.596Z,11.47
2022-11-13T11:12:19.212Z,10.37
2022-11-13T11:15:19.496Z,10.70
2022-11-13T11:17:54.002Z,10.27
2022-11-13T11:20:32.355Z,10.67
2022-11-13T11:23:26.691Z,9.63
2022-11-13T11:25:59.088Z,9.10
2022-11-13T11:28:33.726Z,9.40
2022-11-13T11:31:13.174Z,9.40
2022-11-13T11:33:56.070Z,9.43
2022-11-13T11:36:31.443Z,8.63
2022-11-13T11:39:08.238Z,8.67
2022-11-13T11:41:41.922Z,8.50
2022-11-13T11:44:19.465Z,8.00
2022-11-13T11:46:47.266Z,9.30
2022-11-13T11:49:16.640Z,8.75
2022-11-13T11:51:57.294Z,9.45
2022-11-13T11:54:39.033Z,9.23
2022-11-13T11:57:20.172Z,8.45
2022-11-13T12:00:04.768Z,8.93
2022-11-13T12:02:54.446Z,10.00
2022-11-13T12:05:27.484Z,8.75
2022-11-13T12:08:08.364Z,9.05
2022-11-13T12:10:41.760Z,7.97
2022-11-13T12:13:28.996Z,8.57
2022-11-13T12:16:04.657Z,8.82
2022-11-13T12:18:49.903Z,8.15
2022-11-13T12:21:29.502Z,8.43
2022-11-13T12:24:10.413Z,8.80
2022-11-13T12:26:44.890Z,8.45
2022-11-13T12:29:26.198Z,7.78
2022-11-13T12:32:05.307Z,6.18
2022-11-13T12:34:40.204Z,4.07
2022-11-13T12:37:14.168Z,2.72
2022-11-13T12:39:51.159Z,2.17
2022-11-13T12:42:23.143Z,2.13
2022-11-13T12:45:01.534Z,2.40
2022-11-13T12:47:29.765Z,1.88
2022-11-13T12:50:02.115Z,1.83
2022-11-13T12:52:31.233Z,2.20
2022-11-13T12:55:09.042Z,2.33
2022-11-13T12:57:47.531Z,2.38
2022-11-13T13:00:26.532Z,1.90
2022-11-13T13:03:08.885Z,2.05
2022-11-13T13:05:56.092Z,2.33
2022-11-13T13:08:48.663Z,2.13
2022-11-13T13:11:23.463Z,2.00
2022-11-13T13:14:05.423Z,2.10
2022-11-13T13:16:33.469Z,2.13
2022-11-13T13:19:08.385Z,2.57
2022-11-13T13:21:44.258Z,2.03
2022-11-13T13:24:30.061Z,2.93
2022-11-13T13:26:58.380Z,2.10
2022-11-13T13:29:27.611Z,2.63
2022-11-13T13:32:12.210Z,2.20
2022-11-13T13:34:58.568Z,2.40
2022-11-13T13:37:38.601Z,2.87
2022-11-13T13:40:22.068Z,2.87
2022-11-13T13:43:13.294Z,3.00
2022-11-13T13:45:52.891Z,3.07
2022-11-13T13:48:25.226Z,3.23
2022-11-13T13:50:54.287Z,2.70
2022-11-13T13:53:26.647Z,2.73
2022-11-13T13:55:57.468Z,2.60
2022-11-13T13:58:29.234Z,2.87
2022-11-13T14:01:17.840Z,3.13
2022-11-13T14:03:46.581Z,2.40
2022-11-13T14:06:22.841Z,2.87
2022-11-13T14:08:50.794Z,2.90
2022-11-13T14:11:22.956Z,2.83
2022-11-13T14:13:50.839Z,3.10
2022-11-13T14:16:18.596Z,3.17
2022-11-13T14:18:46.326Z,3.30
2022-11-13T14:21:20.786Z,3.20
2022-11-13T14:23:51.619Z,3.07
2022-11-13T14:26:21.982Z,2.70
2022-11-13T14:28:56.704Z,3.07
2022-11-13T14:31:30.025Z,3.30
2022-11-13T14:34:01.101Z,3.80
2022-11-13T14:36:31.623Z,3.60
2022-11-13T14:39:00.230Z,3.13
2022-11-13T14:41:35.567Z,2.77
2022-11-13T14:44:04.364Z,3.03
2022-11-13T14:46:35.350Z,2.83
2022-11-13T14:49:03.469Z,3.00
2022-11-13T14:51:33.342Z,3.20
2022-11-13T14:54:07.653Z,2.87
2022-11-13T14:56:39.461Z,3.10
2022-11-13T14:59:18.353Z,3.30
2022-11-13T15:01:55.198Z,3.80
2022-11-13T15:04:22.940Z,3.47
2022-11-13T15:06:55.436Z,3.40
2022-11-13T15:09:25.488Z,3.23
2022-11-13T15:11:55.276Z,3.60
2022-11-13T15:14:23.607Z,3.77
2022-11-13T15:16:54.056Z,3.50
2022-11-13T15:19:28.091Z,3.90
2022-11-13T15:24:45.892Z,3.70
2022-11-13T15:27:17.036Z,4.03
2022-11-13T15:29:45.454Z,3.73
2022-11-13T15:32:14.401Z,4.67
2022-11-13T15:34:42.196Z,3.87
2022-11-13T15:37:13.616Z,4.03
2022-11-13T15:39:41.535Z,4.70
2022-11-13T15:42:15.111Z,4.60
2022-11-13T15:44:44.176Z,4.03
2022-11-13T15:47:26.119Z,4.93
2022-11-13T15:50:12.415Z,4.23
2022-11-13T15:52:43.748Z,4.07
2022-11-13T15:55:28.031Z,4.47
2022-11-13T15:57:56.689Z,4.77
2022-11-13T16:00:27.368Z,4.67
2022-11-13T16:02:56.743Z,5.00
2022-11-13T16:05:26.056Z,4.37
2022-11-13T16:07:54.227Z,5.90
2022-11-13T16:10:25.045Z,5.00
2022-11-13T16:12:53.649Z,4.80
2022-11-13T16:15:21.646Z,5.10
2022-11-13T16:17:55.035Z,6.20
2022-11-13T16:20:22.913Z,5.90
2022-11-13T16:22:51.022Z,6.20
2022-11-13T16:25:20.917Z,5.63
2022-11-13T16:27:49.286Z,6.00
2022-11-13T16:30:20.201Z,7.20
2022-11-13T16:32:48.209Z,6.37
2022-11-13T16:35:18.943Z,6.83
2022-11-13T16:37:47.037Z,7.17
2022-11-13T16:40:23.418Z,6.53
2022-11-13T16:42:51.717Z,7.03
2022-11-13T16:45:20.104Z,9.27
2022-11-13T16:47:48.143Z,8.27
2022-11-13T16:50:20.870Z,7.97
2022-11-13T16:52:48.925Z,8.40
2022-11-13T16:55:16.820Z,8.50
2022-11-13T16:57:44.706Z,9.13
2022-11-13T17:00:16.119Z,8.50
2022-11-13T17:02:44.426Z,10.30
2022-11-13T17:05:14.155Z,22.40
2022-11-13T17:07:43.263Z,9.10
2022-11-13T17:10:30.668Z,9.57
2022-11-13T17:12:59.077Z,9.73
2022-11-13T17:15:26.887Z,9.27
2022-11-13T17:17:57.878Z,8.80
2022-11-13T17:20:26.291Z,9.93
2022-11-13T17:22:56.009Z,9.90
2022-11-13T17:25:26.634Z,10.50
2022-11-13T17:27:54.703Z,10.00
2022-11-13T17:30:22.528Z,10.30
2022-11-13T17:32:50.268Z,10.03
2022-11-13T17:35:18.260Z,10.50
2022-11-13T17:37:45.996Z,10.53
2022-11-13T17:40:15.626Z,10.47
2022-11-13T17:42:43.884Z,11.37
2022-11-13T17:45:12.109Z,10.87
2022-11-13T17:47:40.130Z,11.40
2022-11-13T17:50:08.979Z,12.47
2022-11-13T17:52:36.927Z,12.30
2022-11-13T17:55:06.407Z,12.83
2022-11-13T17:57:35.630Z,12.60
2022-11-13T18:00:03.486Z,12.50
2022-11-13T18:02:31.280Z,13.43
2022-11-13T18:05:01.373Z,12.17
2022-11-13T18:07:29.759Z,13.50
2022-11-13T18:09:57.727Z,13.70
2022-11-13T18:12:25.518Z,13.40
2022-11-13T18:14:54.753Z,13.47
2022-11-13T18:17:23.409Z,14.40
2022-11-13T18:19:54.789Z,14.20
2022-11-13T18:22:26.585Z,14.57
2022-11-13T18:24:55.399Z,13.50
2022-11-13T18:27:23.195Z,14.43
2022-11-13T18:29:51.085Z,15.30
2022-11-13T18:32:20.039Z,15.43
2022-11-13T18:34:47.844Z,15.57
2022-11-13T18:37:15.731Z,15.37
2022-11-13T18:39:43.534Z,15.43
2022-11-13T18:42:11.258Z,16.50
2022-11-13T18:44:39.077Z,14.80
2022-11-13T18:47:06.907Z,16.33
2022-11-13T18:49:36.091Z,15.87
2022-11-13T18:52:03.964Z,16.23
2022-11-13T18:54:31.669Z,17.33
2022-11-13T18:56:59.506Z,16.20
2022-11-13T18:59:27.418Z,16.43
2022-11-13T19:01:55.321Z,17.13
2022-11-13T19:04:24.143Z,16.63
2022-11-13T19:06:53.864Z,17.53
2022-11-13T19:09:22.347Z,16.70
2022-11-13T19:11:51.350Z,17.83
2022-11-13T19:14:20.072Z,17.67
2022-11-13T19:16:48.792Z,17.80
2022-11-13T19:19:19.421Z,18.63
2022-11-13T19:21:47.989Z,18.17
2022-11-13T19:24:17.926Z,18.20
2022-11-13T19:26:46.351Z,18.73
2022-11-13T19:29:14.636Z,17.90
2022-11-13T19:31:43.517Z,17.30
2022-11-13T19:34:12.313Z,19.10
2022-11-13T19:36:41.389Z,19.10
2022-11-13T19:39:09.853Z,18.37
2022-11-13T19:41:39.141Z,17.77
2022-11-13T19:44:07.518Z,18.17
2022-11-13T19:46:35.513Z,18.33
2022-11-13T19:49:03.893Z,17.70
2022-11-13T19:51:31.870Z,18.10
2022-11-13T19:54:01.272Z,17.87
2022-11-13T19:56:29.522Z,17.87
2022-11-13T19:58:59.754Z,17.07
2022-11-13T20:01:29.107Z,16.73
2022-11-13T20:03:58.535Z,17.13
2022-11-13T20:06:27.773Z,17.50
2022-11-13T20:08:55.887Z,16.73
2022-11-13T20:11:23.690Z,17.20
2022-11-13T20:13:51.484Z,17.27
2022-11-13T20:16:23.359Z,15.70
2022-11-13T20:18:51.785Z,17.20
2022-11-13T20:21:24.426Z,17.20
2022-11-13T20:23:53.412Z,16.97
2022-11-13T20:26:21.102Z,16.70
2022-11-13T20:28:48.840Z,16.40
2022-11-13T20:31:20.107Z,17.30
2022-11-13T20:33:49.849Z,18.43
2022-11-13T20:36:18.352Z,17.73
2022-11-13T20:38:50.464Z,18.17
2022-11-13T20:41:20.443Z,17.43
2022-11-13T20:43:48.957Z,18.27
2022-11-13T20:46:17.996Z,18.50
2022-11-13T20:48:46.629Z,19.00
2022-11-13T20:51:17.451Z,17.83
2022-11-13T20:53:45.220Z,18.27
2022-11-13T20:56:13.427Z,19.27
2022-11-13T20:58:41.564Z,17.80
2022-11-13T21:01:11.775Z,17.80
2022-11-13T21:03:41.664Z,17.17
2022-11-13T21:06:10.692Z,17.53
2022-11-13T21:08:40.302Z,17.63
2022-11-13T21:11:09.207Z,18.47
2022-11-13T21:13:37.015Z,17.97
2022-11-13T21:16:07.268Z,17.63
2022-11-13T21:18:34.997Z,17.53
2022-11-13T21:21:07.286Z,18.13
2022-11-13T21:23:35.061Z,18.10
2022-11-13T21:26:05.581Z,18.90
2022-11-13T21:28:33.935Z,18.50
2022-11-13T21:31:03.273Z,18.93
2022-11-13T21:33:31.158Z,19.07
2022-11-13T21:36:04.845Z,19.20
2022-11-13T21:38:32.618Z,18.17
2022-11-13T21:41:18.905Z,18.70
2022-11-13T21:43:48.284Z,19.27
2022-11-13T21:46:16.061Z,19.23
2022-11-13T21:48:44.353Z,20.50
2022-11-13T21:51:12.752Z,18.77
2022-11-13T21:53:40.811Z,20.50
2022-11-13T21:56:14.236Z,20.10
2022-11-13T21:58:43.857Z,21.23
2022-11-13T22:01:13.994Z,19.00
2022-11-13T22:03:42.407Z,19.20
2022-11-13T22:06:14.677Z,19.43
2022-11-13T22:08:42.565Z,19.03
2022-11-13T22:11:10.615Z,19.33
2022-11-13T22:13:38.820Z,19.33
2022-11-13T22:16:08.154Z,19.47
2022-11-13T22:18:37.446Z,20.70
2022-11-13T22:21:07.282Z,19.83
2022-11-13T22:23:35.651Z,19.57
2022-11-13T22:26:04.951Z,19.67
2022-11-13T22:28:33.785Z,20.10
2022-11-13T22:31:02.131Z,18.33
2022-11-13T22:33:31.093Z,19.10
2022-11-13T22:36:04.726Z,20.23
2022-11-13T22:38:34.363Z,19.23
2022-11-13T22:41:06.185Z,19.63
2022-11-13T22:43:35.400Z,19.90
2022-11-13T22:46:05.084Z,19.37
2022-11-13T22:48:33.173Z,19.03
2022-11-13T22:51:06.913Z,19.33
2022-11-13T22:53:34.785Z,18.83
2022-11-13T22:56:03.923Z,18.27
2022-11-13T22:58:32.312Z,18.33
2022-11-13T23:01:05.839Z,18.47
2022-11-13T23:03:33.841Z,19.40
2022-11-13T23:06:02.813Z,19.60
2022-11-13T23:08:32.749Z,18.80
2022-11-13T23:11:01.024Z,19.47
2022-11-13T23:13:28.690Z,18.63
2022-11-13T23:15:56.397Z,17.87
2022-11-13T23:18:24.083Z,19.57
2022-11-13T23:20:51.723Z,17.70
2022-11-13T23:23:19.483Z,18.63
2022-11-13T23:25:48.540Z,18.80
2022-11-13T23:28:16.567Z,18.50
2022-11-13T23:30:44.434Z,20.00
2022-11-13T23:33:12.134Z,20.17
2022-11-13T23:35:39.788Z,19.47
2022-11-13T23:38:07.552Z,19.70
2022-11-13T23:40:35.529Z,19.57
2022-11-13T23:43:05.148Z,19.43
2022-11-13T23:45:33.876Z,19.23
2022-11-13T23:48:02.222Z,19.60
2022-11-13T23:50:29.912Z,18.63
2022-11-13T23:52:57.857Z,18.00
2022-11-13T23:55:26.187Z,19.53
2022-11-13T23:57:59.285Z,18.30
